sensor_id;sensor_type;location;lat;lon;timestamp;temperature;humidity
5011;DHT22;2524;54.364;10.072;2022-12-18T00:01:02;-3.50;99.90
5011;DHT22;2524;54.364;10.072;2022-12-18T00:03:32;-3.50;99.90
5011;DHT22;2524;54.364;10.072;2022-12-18T00:05:58;-3.50;99.90
5011;DHT22;2524;54.364;10.072;2022-12-18T00:08:24;-3.50;99.90
5011;DHT22;2524;54.364;10.072;2022-12-18T00:10:49;-3.50;99.90
5011;DHT22;2524;54.364;10.072;2022-12-18T00:13:15;-3.50;99.90
5011;DHT22;2524;54.364;10.072;2022-12-18T00:15:41;-3.50;99.90
5011;DHT22;2524;54.364;10.072;2022-12-18T00:18:06;-3.50;99.90
5011;DHT22;2524;54.364;10.072;2022-12-18T00:20:36;-3.50;99.90
5011;DHT22;2524;54.364;10.072;2022-12-18T00:23:02;-3.60;99.90
5011;DHT22;2524;54.364;10.072;2022-12-18T00:25:28;-3.60;99.90
5011;DHT22;2524;54.364;10.072;2022-12-18T00:27:54;-3.60;99.90
5011;DHT22;2524;54.364;10.072;2022-12-18T00:30:19;-3.60;99.90
5011;DHT22;2524;54.364;10.072;2022-12-18T00:32:45;-3.60;99.90
5011;DHT22;2524;54.364;10.072;2022-12-18T00:35:10;-3.60;99.90
5011;DHT22;2524;54.364;10.072;2022-12-18T00:37:36;-3.60;99.90
5011;DHT22;2524;54.364;10.072;2022-12-18T00:40:02;-3.60;99.90
5011;DHT22;2524;54.364;10.072;2022-12-18T00:42:28;-3.50;99.90
5011;DHT22;2524;54.364;10.072;2022-12-18T00:45:12;-3.60;99.90
5011;DHT22;2524;54.364;10.072;2022-12-18T00:47:38;-3.50;99.90
5011;DHT22;2524;54.364;10.072;2022-12-18T00:50:04;-3.50;99.90
5011;DHT22;2524;54.364;10.072;2022-12-18T00:52:30;-3.50;99.90
5011;DHT22;2524;54.364;10.072;2022-12-18T00:54:55;-3.60;99.90
5011;DHT22;2524;54.364;10.072;2022-12-18T00:57:21;-3.50;99.90
5011;DHT22;2524;54.364;10.072;2022-12-18T00:59:46;-3.50;99.90
5011;DHT22;2524;54.364;10.072;2022-12-18T01:02:12;-3.50;99.90
5011;DHT22;2524;54.364;10.072;2022-12-18T01:04:38;-3.50;99.90
5011;DHT22;2524;54.364;10.072;2022-12-18T01:07:03;-3.60;99.90
5011;DHT22;2524;54.364;10.072;2022-12-18T01:09:29;-3.60;99.90
5011;DHT22;2524;54.364;10.072;2022-12-18T01:11:54;-3.60;99.90
5011;DHT22;2524;54.364;10.072;2022-12-18T01:14:20;-3.60;99.90
5011;DHT22;2524;54.364;10.072;2022-12-18T01:16:46;-3.50;99.90
5011;DHT22;2524;54.364;10.072;2022-12-18T01:19:11;-3.60;99.90
5011;DHT22;2524;54.364;10.072;2022-12-18T01:21:37;-3.60;99.90
5011;DHT22;2524;54.364;10.072;2022-12-18T01:24:02;-3.60;99.90
5011;DHT22;2524;54.364;10.072;2022-12-18T01:26:31;-3.70;99.90
5011;DHT22;2524;54.364;10.072;2022-12-18T01:28:57;-3.70;99.90
5011;DHT22;2524;54.364;10.072;2022-12-18T01:31:28;-3.60;99.90
5011;DHT22;2524;54.364;10.072;2022-12-18T01:33:54;-3.60;99.90
5011;DHT22;2524;54.364;10.072;2022-12-18T01:36:29;-3.60;99.90
5011;DHT22;2524;54.364;10.072;2022-12-18T01:38:55;-3.60;99.90
5011;DHT22;2524;54.364;10.072;2022-12-18T01:41:24;-3.60;99.90
5011;DHT22;2524;54.364;10.072;2022-12-18T01:43:55;-3.60;99.90
5011;DHT22;2524;54.364;10.072;2022-12-18T01:46:23;-3.60;99.90
5011;DHT22;2524;54.364;10.072;2022-12-18T01:48:57;-3.60;99.90
5011;DHT22;2524;54.364;10.072;2022-12-18T01:51:23;-3.60;99.90
5011;DHT22;2524;54.364;10.072;2022-12-18T01:53:49;-3.60;99.90
5011;DHT22;2524;54.364;10.072;2022-12-18T01:56:17;-3.60;99.90
5011;DHT22;2524;54.364;10.072;2022-12-18T01:58:48;-3.60;99.90
5011;DHT22;2524;54.364;10.072;2022-12-18T02:01:16;-3.60;99.90
5011;DHT22;2524;54.364;10.072;2022-12-18T02:03:43;-3.60;99.90
5011;DHT22;2524;54.364;10.072;2022-12-18T02:06:26;-3.70;99.90
5011;DHT22;2524;54.364;10.072;2022-12-18T02:11:50;-3.60;99.90
5011;DHT22;2524;54.364;10.072;2022-12-18T02:14:39;-3.60;99.90
5011;DHT22;2524;54.364;10.072;2022-12-18T02:17:13;-3.60;99.90
5011;DHT22;2524;54.364;10.072;2022-12-18T02:26:26;-3.60;99.90
5011;DHT22;2524;54.364;10.072;2022-12-18T02:28:20;-3.60;99.90
5011;DHT22;2524;54.364;10.072;2022-12-18T02:30:49;-3.70;99.90
5011;DHT22;2524;54.364;10.072;2022-12-18T02:33:16;-3.60;99.90
5011;DHT22;2524;54.364;10.072;2022-12-18T02:35:43;-3.70;99.90
5011;DHT22;2524;54.364;10.072;2022-12-18T02:38:11;-3.70;99.90
5011;DHT22;2524;54.364;10.072;2022-12-18T02:40:38;-3.70;99.90
5011;DHT22;2524;54.364;10.072;2022-12-18T02:43:09;-3.60;99.90
5011;DHT22;2524;54.364;10.072;2022-12-18T02:45:35;-3.70;99.90
5011;DHT22;2524;54.364;10.072;2022-12-18T02:48:01;-3.70;99.90
5011;DHT22;2524;54.364;10.072;2022-12-18T02:50:30;-3.70;99.90
5011;DHT22;2524;54.364;10.072;2022-12-18T02:56:32;-3.70;99.90
5011;DHT22;2524;54.364;10.072;2022-12-18T02:59:02;-3.70;99.90
5011;DHT22;2524;54.364;10.072;2022-12-18T03:01:42;-3.70;99.90
5011;DHT22;2524;54.364;10.072;2022-12-18T03:04:31;-3.70;99.90
5011;DHT22;2524;54.364;10.072;2022-12-18T03:07:01;-3.60;99.90
5011;DHT22;2524;54.364;10.072;2022-12-18T03:09:32;-3.70;99.90
5011;DHT22;2524;54.364;10.072;2022-12-18T03:12:35;-3.60;99.90
5011;DHT22;2524;54.364;10.072;2022-12-18T03:15:03;-3.60;99.90
5011;DHT22;2524;54.364;10.072;2022-12-18T03:17:32;-3.60;99.90
5011;DHT22;2524;54.364;10.072;2022-12-18T03:20:03;-3.60;99.90
5011;DHT22;2524;54.364;10.072;2022-12-18T03:22:30;-3.60;99.90
5011;DHT22;2524;54.364;10.072;2022-12-18T03:25:00;-3.60;99.90
5011;DHT22;2524;54.364;10.072;2022-12-18T03:27:27;-3.60;99.90
5011;DHT22;2524;54.364;10.072;2022-12-18T03:30:03;-3.60;99.90
5011;DHT22;2524;54.364;10.072;2022-12-18T03:35:35;-3.60;99.90
5011;DHT22;2524;54.364;10.072;2022-12-18T03:38:01;-3.60;99.90
5011;DHT22;2524;54.364;10.072;2022-12-18T03:40:35;-3.60;99.90
5011;DHT22;2524;54.364;10.072;2022-12-18T03:43:11;-3.60;99.90
5011;DHT22;2524;54.364;10.072;2022-12-18T03:45:43;-3.70;99.90
5011;DHT22;2524;54.364;10.072;2022-12-18T03:48:23;-3.70;99.90
5011;DHT22;2524;54.364;10.072;2022-12-18T03:51:17;-3.70;99.90
5011;DHT22;2524;54.364;10.072;2022-12-18T03:53:59;-3.70;99.90
5011;DHT22;2524;54.364;10.072;2022-12-18T03:56:29;-3.70;99.90
5011;DHT22;2524;54.364;10.072;2022-12-18T03:58:57;-3.70;99.90
5011;DHT22;2524;54.364;10.072;2022-12-18T04:01:32;-3.80;99.90
5011;DHT22;2524;54.364;10.072;2022-12-18T04:04:00;-3.70;99.90
5011;DHT22;2524;54.364;10.072;2022-12-18T04:06:27;-3.80;99.90
5011;DHT22;2524;54.364;10.072;2022-12-18T04:08:53;-3.80;99.90
5011;DHT22;2524;54.364;10.072;2022-12-18T04:11:19;-3.80;99.90
5011;DHT22;2524;54.364;10.072;2022-12-18T04:13:45;-3.80;99.90
5011;DHT22;2524;54.364;10.072;2022-12-18T04:16:10;-3.80;99.90
5011;DHT22;2524;54.364;10.072;2022-12-18T04:18:36;-3.80;99.90
5011;DHT22;2524;54.364;10.072;2022-12-18T04:21:02;-3.80;99.90
5011;DHT22;2524;54.364;10.072;2022-12-18T04:23:28;-3.80;99.90
5011;DHT22;2524;54.364;10.072;2022-12-18T04:25:53;-3.80;99.90
5011;DHT22;2524;54.364;10.072;2022-12-18T04:28:19;-3.80;99.90
5011;DHT22;2524;54.364;10.072;2022-12-18T04:30:45;-3.80;99.90
5011;DHT22;2524;54.364;10.072;2022-12-18T04:33:13;-3.80;99.90
5011;DHT22;2524;54.364;10.072;2022-12-18T04:35:42;-3.80;99.90
5011;DHT22;2524;54.364;10.072;2022-12-18T04:38:09;-3.80;99.90
5011;DHT22;2524;54.364;10.072;2022-12-18T04:40:35;-3.80;99.90
5011;DHT22;2524;54.364;10.072;2022-12-18T04:43:01;-3.80;99.90
5011;DHT22;2524;54.364;10.072;2022-12-18T04:45:26;-3.80;99.90
5011;DHT22;2524;54.364;10.072;2022-12-18T04:47:52;-3.90;99.90
5011;DHT22;2524;54.364;10.072;2022-12-18T04:50:18;-3.80;99.90
5011;DHT22;2524;54.364;10.072;2022-12-18T04:52:43;-3.80;99.90
5011;DHT22;2524;54.364;10.072;2022-12-18T04:55:09;-3.80;99.90
5011;DHT22;2524;54.364;10.072;2022-12-18T04:57:34;-3.80;99.90
5011;DHT22;2524;54.364;10.072;2022-12-18T05:00:00;-3.80;99.90
5011;DHT22;2524;54.364;10.072;2022-12-18T05:02:26;-3.90;99.90
5011;DHT22;2524;54.364;10.072;2022-12-18T05:04:51;-3.80;99.90
5011;DHT22;2524;54.364;10.072;2022-12-18T05:07:17;-3.80;99.90
5011;DHT22;2524;54.364;10.072;2022-12-18T05:09:42;-3.80;99.90
5011;DHT22;2524;54.364;10.072;2022-12-18T05:12:08;-3.80;99.90
5011;DHT22;2524;54.364;10.072;2022-12-18T05:14:33;-3.90;99.90
5011;DHT22;2524;54.364;10.072;2022-12-18T05:16:59;-3.90;99.90
5011;DHT22;2524;54.364;10.072;2022-12-18T05:19:24;-3.90;99.90
5011;DHT22;2524;54.364;10.072;2022-12-18T05:21:50;-3.90;99.90
5011;DHT22;2524;54.364;10.072;2022-12-18T05:24:16;-3.90;99.90
5011;DHT22;2524;54.364;10.072;2022-12-18T05:26:41;-3.90;99.90
5011;DHT22;2524;54.364;10.072;2022-12-18T05:29:07;-3.90;99.90
5011;DHT22;2524;54.364;10.072;2022-12-18T05:31:32;-3.90;99.90
5011;DHT22;2524;54.364;10.072;2022-12-18T05:33:58;-3.90;99.90
5011;DHT22;2524;54.364;10.072;2022-12-18T05:36:23;-3.90;99.90
5011;DHT22;2524;54.364;10.072;2022-12-18T05:38:49;-3.90;99.90
5011;DHT22;2524;54.364;10.072;2022-12-18T05:41:15;-3.90;99.90
5011;DHT22;2524;54.364;10.072;2022-12-18T05:43:41;-3.90;99.90
5011;DHT22;2524;54.364;10.072;2022-12-18T05:46:09;-4.00;99.90
5011;DHT22;2524;54.364;10.072;2022-12-18T05:48:36;-4.00;99.90
5011;DHT22;2524;54.364;10.072;2022-12-18T05:51:07;-4.00;99.90
5011;DHT22;2524;54.364;10.072;2022-12-18T05:53:33;-4.00;99.90
5011;DHT22;2524;54.364;10.072;2022-12-18T05:56:03;-4.00;99.90
5011;DHT22;2524;54.364;10.072;2022-12-18T05:58:30;-4.00;99.90
5011;DHT22;2524;54.364;10.072;2022-12-18T06:00:56;-4.00;99.90
5011;DHT22;2524;54.364;10.072;2022-12-18T06:03:22;-4.10;99.90
5011;DHT22;2524;54.364;10.072;2022-12-18T06:05:47;-4.10;99.90
5011;DHT22;2524;54.364;10.072;2022-12-18T06:08:13;-4.10;99.90
5011;DHT22;2524;54.364;10.072;2022-12-18T06:10:40;-4.10;99.90
5011;DHT22;2524;54.364;10.072;2022-12-18T06:13:06;-4.10;99.90
5011;DHT22;2524;54.364;10.072;2022-12-18T06:15:32;-4.20;99.90
5011;DHT22;2524;54.364;10.072;2022-12-18T06:17:58;-4.20;99.90
5011;DHT22;2524;54.364;10.072;2022-12-18T06:20:23;-4.20;99.90
5011;DHT22;2524;54.364;10.072;2022-12-18T06:22:49;-4.20;99.90
5011;DHT22;2524;54.364;10.072;2022-12-18T06:25:15;-4.20;99.90
5011;DHT22;2524;54.364;10.072;2022-12-18T06:27:40;-4.30;99.90
5011;DHT22;2524;54.364;10.072;2022-12-18T06:30:06;-4.30;99.90
5011;DHT22;2524;54.364;10.072;2022-12-18T06:32:32;-4.30;99.90
5011;DHT22;2524;54.364;10.072;2022-12-18T06:34:58;-4.30;99.90
5011;DHT22;2524;54.364;10.072;2022-12-18T06:37:23;-4.40;99.90
5011;DHT22;2524;54.364;10.072;2022-12-18T06:39:53;-4.40;99.90
5011;DHT22;2524;54.364;10.072;2022-12-18T06:42:18;-4.40;99.90
5011;DHT22;2524;54.364;10.072;2022-12-18T06:44:47;-4.40;99.90
5011;DHT22;2524;54.364;10.072;2022-12-18T06:47:12;-4.40;99.90
5011;DHT22;2524;54.364;10.072;2022-12-18T06:49:38;-4.40;99.90
5011;DHT22;2524;54.364;10.072;2022-12-18T06:52:03;-4.40;99.90
5011;DHT22;2524;54.364;10.072;2022-12-18T06:54:29;-4.40;99.90
5011;DHT22;2524;54.364;10.072;2022-12-18T06:56:55;-4.40;99.90
5011;DHT22;2524;54.364;10.072;2022-12-18T06:59:21;-4.40;99.90
5011;DHT22;2524;54.364;10.072;2022-12-18T07:01:47;-4.50;99.90
5011;DHT22;2524;54.364;10.072;2022-12-18T07:04:12;-4.50;99.90
5011;DHT22;2524;54.364;10.072;2022-12-18T07:06:38;-4.50;99.90
5011;DHT22;2524;54.364;10.072;2022-12-18T07:09:04;-4.50;99.90
5011;DHT22;2524;54.364;10.072;2022-12-18T07:11:29;-4.50;99.90
5011;DHT22;2524;54.364;10.072;2022-12-18T07:13:57;-4.50;99.90
5011;DHT22;2524;54.364;10.072;2022-12-18T07:16:25;-4.60;99.90
5011;DHT22;2524;54.364;10.072;2022-12-18T07:18:51;-4.60;99.90
5011;DHT22;2524;54.364;10.072;2022-12-18T07:21:19;-4.60;99.90
5011;DHT22;2524;54.364;10.072;2022-12-18T07:23:45;-4.60;99.90
5011;DHT22;2524;54.364;10.072;2022-12-18T07:26:14;-4.60;99.90
5011;DHT22;2524;54.364;10.072;2022-12-18T07:28:41;-4.60;99.90
5011;DHT22;2524;54.364;10.072;2022-12-18T07:31:09;-4.60;99.90
5011;DHT22;2524;54.364;10.072;2022-12-18T07:33:35;-4.60;99.90
5011;DHT22;2524;54.364;10.072;2022-12-18T07:36:05;-4.60;99.90
5011;DHT22;2524;54.364;10.072;2022-12-18T07:38:33;-4.50;99.90
5011;DHT22;2524;54.364;10.072;2022-12-18T07:41:20;-4.60;99.90
5011;DHT22;2524;54.364;10.072;2022-12-18T07:43:45;-4.60;99.90
5011;DHT22;2524;54.364;10.072;2022-12-18T07:46:12;-4.60;99.90
5011;DHT22;2524;54.364;10.072;2022-12-18T07:48:42;-4.60;99.90
5011;DHT22;2524;54.364;10.072;2022-12-18T07:51:08;-4.60;99.90
5011;DHT22;2524;54.364;10.072;2022-12-18T07:53:35;-4.60;99.90
5011;DHT22;2524;54.364;10.072;2022-12-18T07:56:04;-4.60;99.90
5011;DHT22;2524;54.364;10.072;2022-12-18T07:58:31;-4.60;99.90
5011;DHT22;2524;54.364;10.072;2022-12-18T08:01:11;-4.60;99.90
5011;DHT22;2524;54.364;10.072;2022-12-18T08:03:37;-4.60;99.90
5011;DHT22;2524;54.364;10.072;2022-12-18T08:06:05;-4.60;99.90
5011;DHT22;2524;54.364;10.072;2022-12-18T08:08:32;-4.60;99.90
5011;DHT22;2524;54.364;10.072;2022-12-18T08:10:58;-4.60;99.90
5011;DHT22;2524;54.364;10.072;2022-12-18T08:13:24;-4.70;99.90
5011;DHT22;2524;54.364;10.072;2022-12-18T08:16:04;-4.60;99.90
5011;DHT22;2524;54.364;10.072;2022-12-18T08:18:32;-4.60;99.90
5011;DHT22;2524;54.364;10.072;2022-12-18T08:21:16;-4.60;99.90
5011;DHT22;2524;54.364;10.072;2022-12-18T08:23:42;-4.60;99.90
5011;DHT22;2524;54.364;10.072;2022-12-18T08:26:09;-4.60;99.90
5011;DHT22;2524;54.364;10.072;2022-12-18T08:28:35;-4.60;99.90
5011;DHT22;2524;54.364;10.072;2022-12-18T08:31:01;-4.70;99.90
5011;DHT22;2524;54.364;10.072;2022-12-18T08:33:27;-4.60;99.90
5011;DHT22;2524;54.364;10.072;2022-12-18T08:35:52;-4.60;99.90
5011;DHT22;2524;54.364;10.072;2022-12-18T08:38:18;-4.60;99.90
5011;DHT22;2524;54.364;10.072;2022-12-18T08:40:43;-4.60;99.90
5011;DHT22;2524;54.364;10.072;2022-12-18T08:43:10;-4.60;99.90
5011;DHT22;2524;54.364;10.072;2022-12-18T08:45:54;-4.60;99.90
5011;DHT22;2524;54.364;10.072;2022-12-18T08:48:20;-4.60;99.90
5011;DHT22;2524;54.364;10.072;2022-12-18T08:50:59;-4.60;99.90
5011;DHT22;2524;54.364;10.072;2022-12-18T08:53:25;-4.50;99.90
5011;DHT22;2524;54.364;10.072;2022-12-18T08:55:51;-4.50;99.90
5011;DHT22;2524;54.364;10.072;2022-12-18T08:58:17;-4.50;99.90
5011;DHT22;2524;54.364;10.072;2022-12-18T09:00:43;-4.50;99.90
5011;DHT22;2524;54.364;10.072;2022-12-18T09:03:16;-4.50;99.90
5011;DHT22;2524;54.364;10.072;2022-12-18T09:05:43;-4.50;99.90
5011;DHT22;2524;54.364;10.072;2022-12-18T09:08:08;-4.50;99.90
5011;DHT22;2524;54.364;10.072;2022-12-18T09:10:41;-4.40;99.90
5011;DHT22;2524;54.364;10.072;2022-12-18T09:13:07;-4.40;99.90
5011;DHT22;2524;54.364;10.072;2022-12-18T09:15:32;-4.40;99.90
5011;DHT22;2524;54.364;10.072;2022-12-18T09:17:58;-4.40;99.90
5011;DHT22;2524;54.364;10.072;2022-12-18T09:20:24;-4.40;99.90
5011;DHT22;2524;54.364;10.072;2022-12-18T09:22:49;-4.40;99.90
5011;DHT22;2524;54.364;10.072;2022-12-18T09:25:15;-4.40;99.90
5011;DHT22;2524;54.364;10.072;2022-12-18T09:27:40;-4.30;99.90
5011;DHT22;2524;54.364;10.072;2022-12-18T09:30:07;-4.30;99.90
5011;DHT22;2524;54.364;10.072;2022-12-18T09:32:32;-4.30;99.90
5011;DHT22;2524;54.364;10.072;2022-12-18T09:34:58;-4.20;99.90
5011;DHT22;2524;54.364;10.072;2022-12-18T09:37:24;-4.20;99.90
5011;DHT22;2524;54.364;10.072;2022-12-18T09:39:49;-4.20;99.90
5011;DHT22;2524;54.364;10.072;2022-12-18T09:42:20;-4.20;99.90
5011;DHT22;2524;54.364;10.072;2022-12-18T09:44:51;-4.10;99.90
5011;DHT22;2524;54.364;10.072;2022-12-18T09:49:47;-4.10;99.90
5011;DHT22;2524;54.364;10.072;2022-12-18T09:52:42;-4.00;99.90
5011;DHT22;2524;54.364;10.072;2022-12-18T09:57:55;-3.90;99.90
5011;DHT22;2524;54.364;10.072;2022-12-18T10:00:23;-3.80;99.90
5011;DHT22;2524;54.364;10.072;2022-12-18T10:02:58;-3.80;99.90
5011;DHT22;2524;54.364;10.072;2022-12-18T10:05:49;-3.80;99.90
5011;DHT22;2524;54.364;10.072;2022-12-18T10:08:24;-3.70;99.90
5011;DHT22;2524;54.364;10.072;2022-12-18T10:10:55;-3.60;99.90
5011;DHT22;2524;54.364;10.072;2022-12-18T10:13:23;-3.60;99.90
5011;DHT22;2524;54.364;10.072;2022-12-18T10:16:09;-3.60;99.90
5011;DHT22;2524;54.364;10.072;2022-12-18T10:18:53;-3.50;99.90
5011;DHT22;2524;54.364;10.072;2022-12-18T10:21:32;-3.50;99.90
5011;DHT22;2524;54.364;10.072;2022-12-18T10:26:49;-3.30;99.90
5011;DHT22;2524;54.364;10.072;2022-12-18T10:29:16;-3.30;99.90
5011;DHT22;2524;54.364;10.072;2022-12-18T10:31:42;-3.20;99.90
5011;DHT22;2524;54.364;10.072;2022-12-18T10:34:11;-3.20;99.90
5011;DHT22;2524;54.364;10.072;2022-12-18T10:36:41;-3.10;99.90
5011;DHT22;2524;54.364;10.072;2022-12-18T10:41:42;-2.90;99.90
5011;DHT22;2524;54.364;10.072;2022-12-18T10:44:23;-2.90;99.90
5011;DHT22;2524;54.364;10.072;2022-12-18T10:47:03;-2.80;99.90
5011;DHT22;2524;54.364;10.072;2022-12-18T10:49:31;-2.80;99.90
5011;DHT22;2524;54.364;10.072;2022-12-18T10:52:14;-2.70;99.90
5011;DHT22;2524;54.364;10.072;2022-12-18T10:54:47;-2.60;99.90
5011;DHT22;2524;54.364;10.072;2022-12-18T10:57:29;-2.60;99.90
5011;DHT22;2524;54.364;10.072;2022-12-18T10:59:58;-2.50;99.90
5011;DHT22;2524;54.364;10.072;2022-12-18T11:02:35;-2.60;99.90
5011;DHT22;2524;54.364;10.072;2022-12-18T11:05:02;-2.50;99.90
5011;DHT22;2524;54.364;10.072;2022-12-18T11:07:48;-2.50;99.90
5011;DHT22;2524;54.364;10.072;2022-12-18T11:10:17;-2.50;99.90
5011;DHT22;2524;54.364;10.072;2022-12-18T11:12:43;-2.50;99.90
5011;DHT22;2524;54.364;10.072;2022-12-18T11:15:27;-2.40;99.90
5011;DHT22;2524;54.364;10.072;2022-12-18T11:17:55;-2.40;99.90
5011;DHT22;2524;54.364;10.072;2022-12-18T11:22:58;-2.30;99.90
5011;DHT22;2524;54.364;10.072;2022-12-18T11:25:24;-2.20;99.90
5011;DHT22;2524;54.364;10.072;2022-12-18T11:28:02;-2.10;99.90
5011;DHT22;2524;54.364;10.072;2022-12-18T11:30:33;-2.10;99.90
5011;DHT22;2524;54.364;10.072;2022-12-18T11:33:13;-2.10;99.90
5011;DHT22;2524;54.364;10.072;2022-12-18T11:35:56;-2.10;99.90
5011;DHT22;2524;54.364;10.072;2022-12-18T11:38:34;-2.10;99.90
5011;DHT22;2524;54.364;10.072;2022-12-18T11:43:58;-2.20;99.90
5011;DHT22;2524;54.364;10.072;2022-12-18T11:46:27;-2.20;99.90
5011;DHT22;2524;54.364;10.072;2022-12-18T11:51:51;-2.20;99.90
5011;DHT22;2524;54.364;10.072;2022-12-18T11:54:18;-2.20;99.90
5011;DHT22;2524;54.364;10.072;2022-12-18T11:57:10;-2.30;99.90
5011;DHT22;2524;54.364;10.072;2022-12-18T12:02:54;-2.30;99.90
5011;DHT22;2524;54.364;10.072;2022-12-18T12:05:41;-2.30;99.90
5011;DHT22;2524;54.364;10.072;2022-12-18T12:11:38;-2.30;99.90
5011;DHT22;2524;54.364;10.072;2022-12-18T12:14:17;-2.30;99.90
5011;DHT22;2524;54.364;10.072;2022-12-18T12:17:04;-2.30;99.90
5011;DHT22;2524;54.364;10.072;2022-12-18T12:22:18;-2.30;99.90
5011;DHT22;2524;54.364;10.072;2022-12-18T12:30:18;-2.30;99.90
5011;DHT22;2524;54.364;10.072;2022-12-18T12:33:12;-2.30;99.90
5011;DHT22;2524;54.364;10.072;2022-12-18T12:38:33;-2.30;99.90
5011;DHT22;2524;54.364;10.072;2022-12-18T12:41:09;-2.30;99.90
5011;DHT22;2524;54.364;10.072;2022-12-18T12:44:01;-2.30;99.90
5011;DHT22;2524;54.364;10.072;2022-12-18T12:46:31;-2.30;99.90
5011;DHT22;2524;54.364;10.072;2022-12-18T12:49:01;-2.30;99.90
5011;DHT22;2524;54.364;10.072;2022-12-18T12:51:39;-2.30;99.90
5011;DHT22;2524;54.364;10.072;2022-12-18T12:54:21;-2.30;99.90
5011;DHT22;2524;54.364;10.072;2022-12-18T12:56:57;-2.30;99.90
5011;DHT22;2524;54.364;10.072;2022-12-18T12:59:47;-2.30;99.90
5011;DHT22;2524;54.364;10.072;2022-12-18T13:05:30;-2.30;99.90
5011;DHT22;2524;54.364;10.072;2022-12-18T13:08:03;-2.30;99.90
5011;DHT22;2524;54.364;10.072;2022-12-18T13:10:34;-2.30;99.90
5011;DHT22;2524;54.364;10.072;2022-12-18T13:13:08;-2.30;99.90
5011;DHT22;2524;54.364;10.072;2022-12-18T13:15:43;-2.30;99.90
5011;DHT22;2524;54.364;10.072;2022-12-18T13:20:46;-2.20;99.90
5011;DHT22;2524;54.364;10.072;2022-12-18T13:31:12;-2.20;99.90
5011;DHT22;2524;54.364;10.072;2022-12-18T13:33:42;-2.20;99.90
5011;DHT22;2524;54.364;10.072;2022-12-18T13:36:29;-2.20;99.90
5011;DHT22;2524;54.364;10.072;2022-12-18T13:41:42;-2.20;99.90
5011;DHT22;2524;54.364;10.072;2022-12-18T13:44:37;-2.20;99.90
5011;DHT22;2524;54.364;10.072;2022-12-18T13:47:26;-2.20;99.90
5011;DHT22;2524;54.364;10.072;2022-12-18T13:49:53;-2.30;99.90
5011;DHT22;2524;54.364;10.072;2022-12-18T13:52:26;-2.30;99.90
5011;DHT22;2524;54.364;10.072;2022-12-18T13:54:55;-2.30;99.90
5011;DHT22;2524;54.364;10.072;2022-12-18T13:57:38;-2.40;99.90
5011;DHT22;2524;54.364;10.072;2022-12-18T14:00:26;-2.40;99.90
5011;DHT22;2524;54.364;10.072;2022-12-18T14:02:53;-2.50;99.90
5011;DHT22;2524;54.364;10.072;2022-12-18T14:05:26;-2.50;99.90
5011;DHT22;2524;54.364;10.072;2022-12-18T14:07:53;-2.50;99.90
5011;DHT22;2524;54.364;10.072;2022-12-18T14:10:20;-2.50;99.90
5011;DHT22;2524;54.364;10.072;2022-12-18T14:12:50;-2.60;99.90
5011;DHT22;2524;54.364;10.072;2022-12-18T14:15:29;-2.60;99.90
5011;DHT22;2524;54.364;10.072;2022-12-18T14:18:02;-2.60;99.90
5011;DHT22;2524;54.364;10.072;2022-12-18T14:20:32;-2.70;99.90
5011;DHT22;2524;54.364;10.072;2022-12-18T14:22:59;-2.70;99.90
5011;DHT22;2524;54.364;10.072;2022-12-18T14:25:29;-2.80;99.90
5011;DHT22;2524;54.364;10.072;2022-12-18T14:30:40;-2.80;99.90
5011;DHT22;2524;54.364;10.072;2022-12-18T14:33:14;-2.80;99.90
5011;DHT22;2524;54.364;10.072;2022-12-18T14:35:59;-2.90;99.90
5011;DHT22;2524;54.364;10.072;2022-12-18T14:38:34;-2.90;99.90
5011;DHT22;2524;54.364;10.072;2022-12-18T14:41:02;-2.90;99.90
5011;DHT22;2524;54.364;10.072;2022-12-18T14:43:31;-3.00;99.90
5011;DHT22;2524;54.364;10.072;2022-12-18T14:45:57;-3.00;99.90
5011;DHT22;2524;54.364;10.072;2022-12-18T14:48:37;-3.00;99.90
5011;DHT22;2524;54.364;10.072;2022-12-18T14:51:12;-3.00;99.90
5011;DHT22;2524;54.364;10.072;2022-12-18T14:53:43;-3.10;99.90
5011;DHT22;2524;54.364;10.072;2022-12-18T14:56:43;-3.10;99.90
5011;DHT22;2524;54.364;10.072;2022-12-18T14:59:20;-3.10;99.90
5011;DHT22;2524;54.364;10.072;2022-12-18T15:04:27;-3.10;99.90
5011;DHT22;2524;54.364;10.072;2022-12-18T15:07:11;-3.20;99.90
5011;DHT22;2524;54.364;10.072;2022-12-18T15:09:39;-3.10;99.90
5011;DHT22;2524;54.364;10.072;2022-12-18T15:12:15;-3.20;99.90
5011;DHT22;2524;54.364;10.072;2022-12-18T15:14:45;-3.20;99.90
5011;DHT22;2524;54.364;10.072;2022-12-18T15:17:18;-3.20;99.90
5011;DHT22;2524;54.364;10.072;2022-12-18T15:19:47;-3.20;99.90
5011;DHT22;2524;54.364;10.072;2022-12-18T15:22:34;-3.20;99.90
5011;DHT22;2524;54.364;10.072;2022-12-18T15:25:01;-3.20;99.90
5011;DHT22;2524;54.364;10.072;2022-12-18T15:27:35;-3.20;99.90
5011;DHT22;2524;54.364;10.072;2022-12-18T15:30:24;-3.20;99.90
5011;DHT22;2524;54.364;10.072;2022-12-18T15:32:49;-3.20;99.90
5011;DHT22;2524;54.364;10.072;2022-12-18T15:35:21;-3.20;99.90
5011;DHT22;2524;54.364;10.072;2022-12-18T15:37:48;-3.30;99.90
5011;DHT22;2524;54.364;10.072;2022-12-18T15:40:22;-3.30;99.90
5011;DHT22;2524;54.364;10.072;2022-12-18T15:42:48;-3.30;99.90
5011;DHT22;2524;54.364;10.072;2022-12-18T15:45:34;-3.30;99.90
5011;DHT22;2524;54.364;10.072;2022-12-18T15:48:00;-3.30;99.90
5011;DHT22;2524;54.364;10.072;2022-12-18T15:50:28;-3.30;99.90
5011;DHT22;2524;54.364;10.072;2022-12-18T15:52:54;-3.30;99.90
5011;DHT22;2524;54.364;10.072;2022-12-18T15:55:23;-3.30;99.90
5011;DHT22;2524;54.364;10.072;2022-12-18T15:58:09;-3.30;99.90
5011;DHT22;2524;54.364;10.072;2022-12-18T16:00:37;-3.30;99.90
5011;DHT22;2524;54.364;10.072;2022-12-18T16:03:04;-3.30;99.90
5011;DHT22;2524;54.364;10.072;2022-12-18T16:05:30;-3.30;99.90
5011;DHT22;2524;54.364;10.072;2022-12-18T16:07:57;-3.30;99.90
5011;DHT22;2524;54.364;10.072;2022-12-18T16:10:24;-3.30;99.90
5011;DHT22;2524;54.364;10.072;2022-12-18T16:12:49;-3.30;99.90
5011;DHT22;2524;54.364;10.072;2022-12-18T16:15:15;-3.30;99.90
5011;DHT22;2524;54.364;10.072;2022-12-18T16:17:45;-3.30;99.90
5011;DHT22;2524;54.364;10.072;2022-12-18T16:20:21;-3.30;99.90
5011;DHT22;2524;54.364;10.072;2022-12-18T16:22:47;-3.30;99.90
5011;DHT22;2524;54.364;10.072;2022-12-18T16:25:20;-3.30;99.90
5011;DHT22;2524;54.364;10.072;2022-12-18T16:27:46;-3.30;99.90
5011;DHT22;2524;54.364;10.072;2022-12-18T16:30:17;-3.30;99.90
5011;DHT22;2524;54.364;10.072;2022-12-18T16:32:43;-3.30;99.90
5011;DHT22;2524;54.364;10.072;2022-12-18T16:35:13;-3.30;99.90
5011;DHT22;2524;54.364;10.072;2022-12-18T16:37:40;-3.30;99.90
5011;DHT22;2524;54.364;10.072;2022-12-18T16:40:07;-3.30;99.90
5011;DHT22;2524;54.364;10.072;2022-12-18T16:42:35;-3.30;99.90
5011;DHT22;2524;54.364;10.072;2022-12-18T16:45:01;-3.20;99.90
5011;DHT22;2524;54.364;10.072;2022-12-18T16:47:27;-3.30;99.90
5011;DHT22;2524;54.364;10.072;2022-12-18T16:49:52;-3.20;99.90
5011;DHT22;2524;54.364;10.072;2022-12-18T16:52:20;-3.30;99.90
5011;DHT22;2524;54.364;10.072;2022-12-18T16:54:46;-3.20;99.90
5011;DHT22;2524;54.364;10.072;2022-12-18T16:57:14;-3.20;99.90
5011;DHT22;2524;54.364;10.072;2022-12-18T16:59:40;-3.20;99.90
5011;DHT22;2524;54.364;10.072;2022-12-18T17:02:15;-3.20;99.90
5011;DHT22;2524;54.364;10.072;2022-12-18T17:04:42;-3.20;99.90
5011;DHT22;2524;54.364;10.072;2022-12-18T17:07:09;-3.20;99.90
5011;DHT22;2524;54.364;10.072;2022-12-18T17:09:35;-3.20;99.90
5011;DHT22;2524;54.364;10.072;2022-12-18T17:12:00;-3.20;99.90
5011;DHT22;2524;54.364;10.072;2022-12-18T17:14:28;-3.20;99.90
5011;DHT22;2524;54.364;10.072;2022-12-18T17:16:54;-3.30;99.90